Kaprifol — 5BXX2 — position and weather

sailwx.info

Track history (hours):
 
Tides and Currents Weather Stations Pressure Air Temp Water Temp Dewpoint Dewpoint Depression Visibility Wind Speed Wind Dir Waves Ship Positions

Kaprifol

Last reported at 2016-May-04 07:05 UTC. Time now 2016-May-06 03:34 UTC.
Position N 54°35' E 006°54'.

Length 90 m; draft 4.2 m.

Type: Tanker. MMSI: 210445000.

Date/timePositionNaut miles runAvg speedWind from/ knotsBaromVisibWave heightAir tempDewpointWater temp
2016-May-04 07:05N 54°35' E 006°54'9 9.8
2016-May-04 06:10N 54°29' E 007°05'6 9.7
2016-May-04 05:33N 54°25' E 007°12'10 9.8
2016-May-04 04:33N 54°18' E 007°24'1010.1
2016-May-04 03:33N 54°11' E 007°36'1110.7
2016-May-04 02:33N 54°06' E 007°52'1211.5
2016-May-04 01:33N 54°01' E 008°10'1313.1
2016-May-04 00:33N 53°58' E 008°32'1312.4
2016-May-03 23:33N 53°51' E 008°49'1010.4
2016-May-03 22:34N 53°53' E 009°06'2 2.5
2016-May-03 21:33N 53°54' E 009°09'8 7.9
2016-May-03 20:33N 54°00' E 009°18'30 6.7
2016-May-03 16:05N 54°21' E 009°56'4 7.2
2016-May-03 15:33N 54°22' E 010°02'3 3.3
2016-May-03 14:31N 54°22' E 010°08'0 0.0
2016-May-03 13:31N 54°22' E 010°08'0 0.0
2016-May-03 12:28N 54°22' E 010°08'0 0.0
2016-May-03 11:16N 54°22' E 010°08'0 0.0
2016-May-03 10:31N 54°22' E 010°08'0 0.0
2016-May-03 09:31N 54°22' E 010°08'0 0.0
2016-May-03 08:31N 54°22' E 010°08'0 0.4
2016-May-03 07:23N 54°22' E 010°09'1 1.6
2016-May-03 06:33N 54°23' E 010°11'1010.2
2016-May-03 05:33N 54°31' E 010°21'1111.1
2016-May-03 04:33N 54°36' E 010°38'1010.2
2016-May-03 03:33N 54°43' E 010°50'9 9.1
2016-May-03 02:33N 54°52' E 010°53'9 9.2
2016-May-03 01:33N 54°60' E 011°01'1110.7
2016-May-03 00:33N 55°05' E 011°18'1110.7
2016-May-02 23:33N 55°02' E 011°36'1010.1
2016-May-02 22:33N 54°58' E 011°52'1 0.7
2016-May-02 21:33N 54°59' E 011°53'0 0.0
2016-May-02 20:33N 54°59' E 011°53'0 0.0
2016-May-02 19:33N 54°59' E 011°53'0 0.0
2016-May-02 11:19N 54°59' E 011°53'5 6.0
2016-May-02 10:32N 54°55' E 011°60'8 7.7
2016-May-02 09:34N 54°51' E 012°10'9 9.0
2016-May-02 08:33N 54°42' E 012°14'1110.7
2016-May-02 07:33N 54°32' E 012°16'1010.4
2016-May-02 06:33N 54°22' E 012°08'1010.4
2016-May-02 05:33N 54°12' E 012°05'3 3.0
2016-May-02 04:30N 54°10' E 012°08'0 0.0
2016-May-02 03:33N 54°10' E 012°08'0 0.0
2016-May-02 02:33N 54°10' E 012°08'0 0.0
2016-May-02 01:24N 54°10' E 012°08'0 0.0
2016-May-02 00:24N 54°10' E 012°08'0 0.0
2016-May-01 23:33N 54°10' E 012°08'0 0.0
2016-May-01 19:33N 54°10' E 012°08'0 0.0
2016-May-01 18:18N 54°10' E 012°08'0 0.0
2016-May-01 17:08N 54°10' E 012°08'1 1.9
2016-May-01 16:33N 54°10' E 012°07'9 9.1
2016-May-01 15:33N 54°18' E 012°01'1211.8
2016-May-01 14:33N 54°29' E 012°11'31 9.2
2016-May-01 11:09N 54°58' E 011°53'0 0.6
2016-May-01 10:25N 54°59' E 011°53'0 0.0
2016-May-01 09:28N 54°59' E 011°53'0 0.0
2016-May-01 08:22N 54°59' E 011°53'0 0.0
2016-May-01 06:34N 54°59' E 011°53'0 0.0
2016-May-01 05:31N 54°59' E 011°53'0 0.0
2016-May-01 04:24N 54°59' E 011°53'0 0.0
2016-May-01 02:21N 54°59' E 011°53'0 0.0
2016-May-01 01:33N 54°59' E 011°53'0 0.0
2016-May-01 00:33N 54°59' E 011°53'0 0.0
2016-Apr-30 23:27N 54°59' E 011°53'0 0.0
2016-Apr-30 22:21N 54°59' E 011°53'0 0.0
2016-Apr-30 21:12N 54°59' E 011°53'0 0.0
2016-Apr-30 20:30N 54°59' E 011°53'0 0.0
2016-Apr-30 19:18N 54°59' E 011°53'0 0.0
2016-Apr-30 18:33N 54°59' E 011°53'0 0.0
2016-Apr-30 17:33N 54°59' E 011°53'4 1.6
2016-Apr-30 15:17N 54°57' E 011°59'8 9.1
2016-Apr-30 14:23N 54°51' E 012°09'5 5.4
2016-Apr-30 13:33N 54°47' E 012°13'1110.8
2016-Apr-30 12:31N 54°36' E 012°15'10 9.9
2016-Apr-30 11:33N 54°27' E 012°13'1010.1
2016-Apr-30 10:33N 54°18' E 012°05'9 6.1
2016-Apr-30 09:10N 54°10' E 012°08'0 0.0
2016-Apr-30 07:31N 54°10' E 012°08'0 0.0
2016-Apr-30 06:25N 54°10' E 012°08'0 0.0
2016-Apr-30 05:30N 54°10' E 012°08'0 0.0
2016-Apr-30 04:30N 54°10' E 012°08'0 0.0
2016-Apr-30 03:30N 54°10' E 012°08'0 0.0
2016-Apr-30 02:30N 54°10' E 012°08'0 0.0
2016-Apr-29 23:22N 54°10' E 012°08'1 1.6
2016-Apr-29 22:33N 54°10' E 012°06'9 8.5
2016-Apr-29 21:32N 54°18' E 012°02'1111.7
2016-Apr-29 20:33N 54°28' E 012°11'1211.6
2016-Apr-29 19:33N 54°38' E 012°20'3311.1
2016-Apr-29 16:33N 54°47' E 013°16'1111.5
2016-Apr-29 15:33N 54°46' E 013°36'1111.3
2016-Apr-29 14:33N 54°43' E 013°55'1211.5
2016-Apr-29 13:32N 54°40' E 014°15'2211.1
2016-Apr-29 11:31N 54°44' E 014°53'1111.4
2016-Apr-29 10:32N 54°47' E 015°12'1111.0
2016-Apr-29 09:31N 54°54' E 015°27'1010.6
2016-Apr-29 08:33N 55°04' E 015°34'1110.8
2016-Apr-29 07:31N 55°15' E 015°36'1210.5
2016-Apr-29 06:22N 55°26' E 015°31'910.7
2016-Apr-29 05:33N 55°33' E 015°20'1010.5
2016-Apr-29 04:33N 55°32' E 015°02'1110.8
2016-Apr-29 03:33N 55°26' E 014°46'1111.2
2016-Apr-29 02:33N 55°18' E 014°32'1111.0
2016-Apr-29 01:33N 55°10' E 014°20'1110.8
2016-Apr-29 00:33N 55°10' E 014°01'2210.8
2016-Apr-28 22:30N 55°11' E 013°22'1111.2
2016-Apr-28 21:33N 55°13' E 013°03'1111.2
2016-Apr-28 20:33N 55°17' E 012°45'9 8.9
2016-Apr-28 19:33N 55°25' E 012°39'1010.4
2016-Apr-28 18:33N 55°35' E 012°42'1010.2
2016-Apr-28 17:33N 55°45' E 012°40'1110.8
2016-Apr-28 16:33N 55°56' E 012°38'9 9.1
2016-Apr-28 15:33N 56°05' E 012°35'9 9.3
2016-Apr-28 14:33N 56°10' E 012°22'59 9.7
2016-Apr-28 08:28N 56°04' E 010°37'1010.8
2016-Apr-28 07:33N 56°08' E 010°21'4 4.2
2016-Apr-28 06:33N 56°09' E 010°14'0 0.0
2016-Apr-28 05:33N 56°09' E 010°14'0 0.0
2016-Apr-28 04:32N 56°09' E 010°14'0 0.0
2016-Apr-28 03:32N 56°09' E 010°14'0 0.0
2016-Apr-28 02:32N 56°09' E 010°14'0 0.0
2016-Apr-28 01:32N 56°09' E 010°14'0 0.0
2016-Apr-28 00:32N 56°09' E 010°14'0 0.0
2016-Apr-27 23:32N 56°09' E 010°14'0 0.0
2016-Apr-27 22:32N 56°09' E 010°14'0 0.0
2016-Apr-27 21:32N 56°09' E 010°14'0 0.0
2016-Apr-27 20:32N 56°09' E 010°14'0 0.0
2016-Apr-27 19:32N 56°09' E 010°14'0 0.0
2016-Apr-27 18:32N 56°09' E 010°14'0 0.0
2016-Apr-27 17:32N 56°09' E 010°14'0 0.0
2016-Apr-27 16:32N 56°09' E 010°14'0 0.0
2016-Apr-27 15:32N 56°09' E 010°14'0 0.0
2016-Apr-27 14:32N 56°09' E 010°14'0 0.0
2016-Apr-27 13:34N 56°09' E 010°14'0 0.0
2016-Apr-27 12:34N 56°09' E 010°14'0 0.0
2016-Apr-27 11:33N 56°09' E 010°14'0 0.0
2016-Apr-27 10:33N 56°09' E 010°14'0 0.0
2016-Apr-27 09:33N 56°09' E 010°14'0 0.0
2016-Apr-27 08:33N 56°09' E 010°14'0 0.0
2016-Apr-27 07:33N 56°09' E 010°14'0 0.2
2016-Apr-27 06:33N 56°10' E 010°14'9 9.1
2016-Apr-27 05:33N 56°06' E 010°29'10 9.4
2016-Apr-27 04:32N 56°08' E 010°45'1010.3
2016-Apr-27 03:33N 56°17' E 010°55'4110.1
2016-Apr-26 23:33N 56°44' E 011°49'10 9.9
2016-Apr-26 22:33N 56°54' E 011°45'1010.2
2016-Apr-26 21:33N 57°03' E 011°39'10 9.9
2016-Apr-26 20:33N 57°13' E 011°33'10 9.9
2016-Apr-26 19:33N 57°22' E 011°26'9 9.4
2016-Apr-26 18:34N 57°31' E 011°20'10 9.8
2016-Apr-26 17:34N 57°40' E 011°13'10 9.6
2016-Apr-26 16:33N 57°48' E 011°06'9 9.3
2016-Apr-26 15:33N 57°57' E 010°59'3 2.5
2016-Apr-26 14:34N 57°59' E 010°58'4 4.5
2016-Apr-26 13:33N 57°59' E 010°50'9 9.2
2016-Apr-26 12:33N 57°58' E 010°32'117 8.3
2016-Apr-25 22:33N 57°43' E 006°55'8 8.2
2016-Apr-25 21:32N 57°44' E 006°40'8 8.2
2016-Apr-25 20:33N 57°48' E 006°26'9 9.2
2016-Apr-25 19:32N 57°54' E 006°13'9 8.9
2016-Apr-25 18:33N 57°60' E 006°00'33 9.6
2016-Apr-25 15:09N 58°21' E 005°13'610.0
2016-Apr-25 14:33N 58°25' E 005°05'1110.0
2016-Apr-25 13:25N 58°33' E 004°50'910.4
2016-Apr-25 12:32N 58°40' E 004°38'  
Track history (hours):
 
Tides and Currents Weather Stations Pressure Air Temp Water Temp Dewpoint Dewpoint Depression Visibility Wind Speed Wind Dir Waves Ship Positions

Kaprifol

Last reported at 2016-May-04 07:05 UTC. Time now 2016-May-06 03:34 UTC.
Position N 54°35' E 006°54'.

Length 90 m; draft 4.2 m.

Type: Tanker. MMSI: 210445000.

Date/timePositionNaut miles runAvg speedWind from/ knotsBaromVisibWave heightAir tempDewpointWater temp
2016-May-04 07:05N 54°35' E 006°54'9 9.8
2016-May-04 06:10N 54°29' E 007°05'6 9.7
2016-May-04 05:33N 54°25' E 007°12'10 9.8
2016-May-04 04:33N 54°18' E 007°24'1010.1
2016-May-04 03:33N 54°11' E 007°36'1110.7
2016-May-04 02:33N 54°06' E 007°52'1211.5
2016-May-04 01:33N 54°01' E 008°10'1313.1
2016-May-04 00:33N 53°58' E 008°32'1312.4
2016-May-03 23:33N 53°51' E 008°49'1010.4
2016-May-03 22:34N 53°53' E 009°06'2 2.5
2016-May-03 21:33N 53°54' E 009°09'8 7.9
2016-May-03 20:33N 54°00' E 009°18'30 6.7
2016-May-03 16:05N 54°21' E 009°56'4 7.2
2016-May-03 15:33N 54°22' E 010°02'3 3.3
2016-May-03 14:31N 54°22' E 010°08'0 0.0
2016-May-03 13:31N 54°22' E 010°08'0 0.0
2016-May-03 12:28N 54°22' E 010°08'0 0.0
2016-May-03 11:16N 54°22' E 010°08'0 0.0
2016-May-03 10:31N 54°22' E 010°08'0 0.0
2016-May-03 09:31N 54°22' E 010°08'0 0.0
2016-May-03 08:31N 54°22' E 010°08'0 0.4
2016-May-03 07:23N 54°22' E 010°09'1 1.6
2016-May-03 06:33N 54°23' E 010°11'1010.2
2016-May-03 05:33N 54°31' E 010°21'1111.1
2016-May-03 04:33N 54°36' E 010°38'1010.2
2016-May-03 03:33N 54°43' E 010°50'9 9.1
2016-May-03 02:33N 54°52' E 010°53'9 9.2
2016-May-03 01:33N 54°60' E 011°01'1110.7
2016-May-03 00:33N 55°05' E 011°18'1110.7
2016-May-02 23:33N 55°02' E 011°36'1010.1
2016-May-02 22:33N 54°58' E 011°52'1 0.7
2016-May-02 21:33N 54°59' E 011°53'0 0.0
2016-May-02 20:33N 54°59' E 011°53'0 0.0
2016-May-02 19:33N 54°59' E 011°53'0 0.0
2016-May-02 11:19N 54°59' E 011°53'5 6.0
2016-May-02 10:32N 54°55' E 011°60'8 7.7
2016-May-02 09:34N 54°51' E 012°10'9 9.0
2016-May-02 08:33N 54°42' E 012°14'1110.7
2016-May-02 07:33N 54°32' E 012°16'1010.4
2016-May-02 06:33N 54°22' E 012°08'1010.4
2016-May-02 05:33N 54°12' E 012°05'3 3.0
2016-May-02 04:30N 54°10' E 012°08'0 0.0
2016-May-02 03:33N 54°10' E 012°08'0 0.0
2016-May-02 02:33N 54°10' E 012°08'0 0.0
2016-May-02 01:24N 54°10' E 012°08'0 0.0
2016-May-02 00:24N 54°10' E 012°08'0 0.0
2016-May-01 23:33N 54°10' E 012°08'0 0.0
2016-May-01 19:33N 54°10' E 012°08'0 0.0
2016-May-01 18:18N 54°10' E 012°08'0 0.0
2016-May-01 17:08N 54°10' E 012°08'1 1.9
2016-May-01 16:33N 54°10' E 012°07'9 9.1
2016-May-01 15:33N 54°18' E 012°01'1211.8
2016-May-01 14:33N 54°29' E 012°11'31 9.2
2016-May-01 11:09N 54°58' E 011°53'0 0.6
2016-May-01 10:25N 54°59' E 011°53'0 0.0
2016-May-01 09:28N 54°59' E 011°53'0 0.0
2016-May-01 08:22N 54°59' E 011°53'0 0.0
2016-May-01 06:34N 54°59' E 011°53'0 0.0
2016-May-01 05:31N 54°59' E 011°53'0 0.0
2016-May-01 04:24N 54°59' E 011°53'0 0.0
2016-May-01 02:21N 54°59' E 011°53'0 0.0
2016-May-01 01:33N 54°59' E 011°53'0 0.0
2016-May-01 00:33N 54°59' E 011°53'0 0.0
2016-Apr-30 23:27N 54°59' E 011°53'0 0.0
2016-Apr-30 22:21N 54°59' E 011°53'0 0.0
2016-Apr-30 21:12N 54°59' E 011°53'0 0.0
2016-Apr-30 20:30N 54°59' E 011°53'0 0.0
2016-Apr-30 19:18N 54°59' E 011°53'0 0.0
2016-Apr-30 18:33N 54°59' E 011°53'0 0.0
2016-Apr-30 17:33N 54°59' E 011°53'4 1.6
2016-Apr-30 15:17N 54°57' E 011°59'8 9.1
2016-Apr-30 14:23N 54°51' E 012°09'5 5.4
2016-Apr-30 13:33N 54°47' E 012°13'1110.8
2016-Apr-30 12:31N 54°36' E 012°15'10 9.9
2016-Apr-30 11:33N 54°27' E 012°13'1010.1
2016-Apr-30 10:33N 54°18' E 012°05'9 6.1
2016-Apr-30 09:10N 54°10' E 012°08'0 0.0
2016-Apr-30 07:31N 54°10' E 012°08'0 0.0
2016-Apr-30 06:25N 54°10' E 012°08'0 0.0
2016-Apr-30 05:30N 54°10' E 012°08'0 0.0
2016-Apr-30 04:30N 54°10' E 012°08'0 0.0
2016-Apr-30 03:30N 54°10' E 012°08'0 0.0
2016-Apr-30 02:30N 54°10' E 012°08'0 0.0
2016-Apr-29 23:22N 54°10' E 012°08'1 1.6
2016-Apr-29 22:33N 54°10' E 012°06'9 8.5
2016-Apr-29 21:32N 54°18' E 012°02'1111.7
2016-Apr-29 20:33N 54°28' E 012°11'1211.6
2016-Apr-29 19:33N 54°38' E 012°20'3311.1
2016-Apr-29 16:33N 54°47' E 013°16'1111.5
2016-Apr-29 15:33N 54°46' E 013°36'1111.3
2016-Apr-29 14:33N 54°43' E 013°55'1211.5
2016-Apr-29 13:32N 54°40' E 014°15'2211.1
2016-Apr-29 11:31N 54°44' E 014°53'1111.4
2016-Apr-29 10:32N 54°47' E 015°12'1111.0
2016-Apr-29 09:31N 54°54' E 015°27'1010.6
2016-Apr-29 08:33N 55°04' E 015°34'1110.8
2016-Apr-29 07:31N 55°15' E 015°36'1210.5
2016-Apr-29 06:22N 55°26' E 015°31'910.7
2016-Apr-29 05:33N 55°33' E 015°20'1010.5
2016-Apr-29 04:33N 55°32' E 015°02'1110.8
2016-Apr-29 03:33N 55°26' E 014°46'1111.2
2016-Apr-29 02:33N 55°18' E 014°32'1111.0
2016-Apr-29 01:33N 55°10' E 014°20'1110.8
2016-Apr-29 00:33N 55°10' E 014°01'2210.8
2016-Apr-28 22:30N 55°11' E 013°22'1111.2
2016-Apr-28 21:33N 55°13' E 013°03'1111.2
2016-Apr-28 20:33N 55°17' E 012°45'9 8.9
2016-Apr-28 19:33N 55°25' E 012°39'1010.4
2016-Apr-28 18:33N 55°35' E 012°42'1010.2
2016-Apr-28 17:33N 55°45' E 012°40'1110.8
2016-Apr-28 16:33N 55°56' E 012°38'9 9.1
2016-Apr-28 15:33N 56°05' E 012°35'9 9.3
2016-Apr-28 14:33N 56°10' E 012°22'59 9.7
2016-Apr-28 08:28N 56°04' E 010°37'1010.8
2016-Apr-28 07:33N 56°08' E 010°21'4 4.2
2016-Apr-28 06:33N 56°09' E 010°14'0 0.0
2016-Apr-28 05:33N 56°09' E 010°14'0 0.0
2016-Apr-28 04:32N 56°09' E 010°14'0 0.0
2016-Apr-28 03:32N 56°09' E 010°14'0 0.0
2016-Apr-28 02:32N 56°09' E 010°14'0 0.0
2016-Apr-28 01:32N 56°09' E 010°14'0 0.0
2016-Apr-28 00:32N 56°09' E 010°14'0 0.0
2016-Apr-27 23:32N 56°09' E 010°14'0 0.0
2016-Apr-27 22:32N 56°09' E 010°14'0 0.0
2016-Apr-27 21:32N 56°09' E 010°14'0 0.0
2016-Apr-27 20:32N 56°09' E 010°14'0 0.0
2016-Apr-27 19:32N 56°09' E 010°14'0 0.0
2016-Apr-27 18:32N 56°09' E 010°14'0 0.0
2016-Apr-27 17:32N 56°09' E 010°14'0 0.0
2016-Apr-27 16:32N 56°09' E 010°14'0 0.0
2016-Apr-27 15:32N 56°09' E 010°14'0 0.0
2016-Apr-27 14:32N 56°09' E 010°14'0 0.0
2016-Apr-27 13:34N 56°09' E 010°14'0 0.0
2016-Apr-27 12:34N 56°09' E 010°14'0 0.0
2016-Apr-27 11:33N 56°09' E 010°14'0 0.0
2016-Apr-27 10:33N 56°09' E 010°14'0 0.0
2016-Apr-27 09:33N 56°09' E 010°14'0 0.0
2016-Apr-27 08:33N 56°09' E 010°14'0 0.0
2016-Apr-27 07:33N 56°09' E 010°14'0 0.2
2016-Apr-27 06:33N 56°10' E 010°14'9 9.1
2016-Apr-27 05:33N 56°06' E 010°29'10 9.4
2016-Apr-27 04:32N 56°08' E 010°45'1010.3
2016-Apr-27 03:33N 56°17' E 010°55'4110.1
2016-Apr-26 23:33N 56°44' E 011°49'10 9.9
2016-Apr-26 22:33N 56°54' E 011°45'1010.2
2016-Apr-26 21:33N 57°03' E 011°39'10 9.9
2016-Apr-26 20:33N 57°13' E 011°33'10 9.9
2016-Apr-26 19:33N 57°22' E 011°26'9 9.4
2016-Apr-26 18:34N 57°31' E 011°20'10 9.8
2016-Apr-26 17:34N 57°40' E 011°13'10 9.6
2016-Apr-26 16:33N 57°48' E 011°06'9 9.3
2016-Apr-26 15:33N 57°57' E 010°59'3 2.5
2016-Apr-26 14:34N 57°59' E 010°58'4 4.5
2016-Apr-26 13:33N 57°59' E 010°50'9 9.2
2016-Apr-26 12:33N 57°58' E 010°32'117 8.3
2016-Apr-25 22:33N 57°43' E 006°55'8 8.2
2016-Apr-25 21:32N 57°44' E 006°40'8 8.2
2016-Apr-25 20:33N 57°48' E 006°26'9 9.2
2016-Apr-25 19:32N 57°54' E 006°13'9 8.9
2016-Apr-25 18:33N 57°60' E 006°00'33 9.6
2016-Apr-25 15:09N 58°21' E 005°13'610.0
2016-Apr-25 14:33N 58°25' E 005°05'1110.0
2016-Apr-25 13:25N 58°33' E 004°50'910.4
2016-Apr-25 12:32N 58°40' E 004°38'  

Dump ship's entire track history